createdAt,value
2023-03-19T00:00:38.641Z,8.43
2023-03-19T00:03:07.110Z,8.77
2023-03-19T00:05:35.803Z,8.43
2023-03-19T00:08:04.532Z,9.00
2023-03-19T00:10:32.999Z,8.80
2023-03-19T00:13:01.645Z,8.67
2023-03-19T00:15:30.103Z,8.30
2023-03-19T00:17:59.938Z,8.10
2023-03-19T00:20:28.626Z,8.20
2023-03-19T00:22:57.213Z,9.10
2023-03-19T00:25:25.795Z,8.60
2023-03-19T00:27:55.106Z,8.33
2023-03-19T00:30:24.190Z,8.67
2023-03-19T00:32:52.903Z,8.20
2023-03-19T00:35:22.788Z,7.77
2023-03-19T00:37:51.461Z,8.53
2023-03-19T00:40:20.091Z,8.10
2023-03-19T00:42:48.745Z,8.30
2023-03-19T00:45:17.428Z,8.47
2023-03-19T00:47:46.086Z,7.93
2023-03-19T00:50:14.588Z,9.20
2023-03-19T00:52:44.469Z,8.50
2023-03-19T00:55:13.036Z,8.30
2023-03-19T00:57:41.450Z,8.07
2023-03-19T01:00:11.222Z,8.53
2023-03-19T01:02:39.701Z,8.00
2023-03-19T01:05:09.603Z,8.17
2023-03-19T01:07:38.088Z,7.90
2023-03-19T01:10:09.705Z,8.37
2023-03-19T01:12:38.303Z,7.93
2023-03-19T01:15:08.762Z,7.53
2023-03-19T01:17:37.465Z,8.53
2023-03-19T01:20:09.017Z,8.37
2023-03-19T01:22:37.747Z,7.43
2023-03-19T01:25:08.702Z,8.23
2023-03-19T01:27:37.376Z,8.30
2023-03-19T01:30:07.529Z,7.30
2023-03-19T01:32:36.164Z,8.00
2023-03-19T01:35:04.872Z,8.47
2023-03-19T01:37:33.796Z,8.57
2023-03-19T01:40:02.277Z,8.67
2023-03-19T01:42:32.226Z,8.07
2023-03-19T01:45:00.830Z,8.43
2023-03-19T01:47:32.249Z,8.50
2023-03-19T01:50:00.893Z,8.33
2023-03-19T01:52:33.763Z,7.90
2023-03-19T01:55:05.290Z,7.73
2023-03-19T01:57:35.182Z,8.37
2023-03-19T02:00:05.461Z,8.43
2023-03-19T02:02:35.818Z,7.80
2023-03-19T02:05:07.912Z,8.60
2023-03-19T02:07:37.495Z,8.30
2023-03-19T02:10:08.217Z,8.27
2023-03-19T02:12:38.527Z,8.63
2023-03-19T02:15:08.303Z,7.30
2023-03-19T02:17:36.838Z,7.80
2023-03-19T02:20:09.812Z,8.00
2023-03-19T02:22:41.033Z,8.00
2023-03-19T02:25:14.803Z,7.80
2023-03-19T02:27:45.088Z,8.20
2023-03-19T02:30:21.560Z,8.40
2023-03-19T02:32:50.044Z,8.13
2023-03-19T02:35:18.644Z,7.93
2023-03-19T02:37:47.104Z,7.33
2023-03-19T02:40:20.117Z,7.80
2023-03-19T02:42:49.894Z,7.73
2023-03-19T02:45:18.519Z,7.73
2023-03-19T02:47:46.916Z,7.63
2023-03-19T02:50:15.565Z,7.70
2023-03-19T02:52:43.994Z,8.00
2023-03-19T02:55:12.568Z,7.30
2023-03-19T02:57:44.382Z,7.87
2023-03-19T03:00:18.804Z,7.23
2023-03-19T03:02:47.367Z,6.93
2023-03-19T03:05:15.909Z,7.40
2023-03-19T03:07:45.000Z,7.40
2023-03-19T03:10:13.953Z,7.67
2023-03-19T03:12:42.366Z,7.03
2023-03-19T03:15:11.222Z,8.03
2023-03-19T03:17:41.884Z,7.43
2023-03-19T03:20:12.745Z,7.63
2023-03-19T03:22:42.141Z,8.40
2023-03-19T03:25:11.512Z,8.00
2023-03-19T03:27:40.455Z,7.30
2023-03-19T03:30:10.732Z,7.37
2023-03-19T03:32:40.956Z,7.20
2023-03-19T03:35:10.278Z,7.40
2023-03-19T03:37:39.704Z,6.73
2023-03-19T03:40:09.554Z,7.50
2023-03-19T03:42:38.284Z,7.23
2023-03-19T03:45:07.547Z,7.57
2023-03-19T03:47:35.998Z,7.50
2023-03-19T03:50:07.228Z,7.07
2023-03-19T03:52:35.899Z,7.20
2023-03-19T03:55:04.917Z,6.80
2023-03-19T03:57:33.347Z,6.90
2023-03-19T04:00:01.844Z,6.90
2023-03-19T04:02:30.839Z,7.90
2023-03-19T04:04:59.349Z,7.27
2023-03-19T04:07:29.231Z,8.00
2023-03-19T04:09:58.684Z,7.87
2023-03-19T04:12:27.413Z,7.80
2023-03-19T04:14:55.844Z,7.53
2023-03-19T04:17:24.408Z,8.33
2023-03-19T04:19:52.822Z,7.20
2023-03-19T04:22:21.312Z,7.63
2023-03-19T04:24:51.248Z,7.80
2023-03-19T04:27:19.697Z,7.57
2023-03-19T04:29:48.156Z,7.90
2023-03-19T04:32:16.771Z,7.40
2023-03-19T04:34:45.301Z,8.00
2023-03-19T04:37:13.798Z,7.83
2023-03-19T04:39:42.208Z,7.97
2023-03-19T04:42:12.543Z,7.63
2023-03-19T04:44:41.001Z,7.53
2023-03-19T04:47:10.299Z,7.43
2023-03-19T04:49:39.034Z,7.67
2023-03-19T04:52:07.749Z,7.10
2023-03-19T04:54:36.239Z,6.93
2023-03-19T04:57:04.680Z,6.73
2023-03-19T04:59:34.597Z,7.50
2023-03-19T05:02:03.146Z,8.50
2023-03-19T05:04:31.633Z,7.47
2023-03-19T05:07:00.114Z,7.73
2023-03-19T05:09:28.915Z,8.20
2023-03-19T05:11:57.347Z,8.10
2023-03-19T05:14:25.892Z,7.70
2023-03-19T05:16:55.792Z,7.40
2023-03-19T05:19:25.206Z,9.60
2023-03-19T05:21:53.621Z,9.17
2023-03-19T05:24:22.257Z,9.40
2023-03-19T05:26:50.740Z,8.63
2023-03-19T05:29:19.206Z,8.83
2023-03-19T05:31:48.138Z,8.30
2023-03-19T05:34:18.075Z,8.50
2023-03-19T05:36:46.530Z,9.13
2023-03-19T05:39:14.950Z,8.87
2023-03-19T05:41:43.396Z,9.33
2023-03-19T05:44:11.953Z,8.60
2023-03-19T05:46:41.697Z,9.10
2023-03-19T05:49:10.576Z,8.90
2023-03-19T05:51:40.382Z,7.77
2023-03-19T05:54:08.959Z,21.13
2023-03-19T05:56:37.750Z,13.03
2023-03-19T05:59:06.653Z,10.60
2023-03-19T06:01:35.647Z,8.67
2023-03-19T06:04:06.138Z,8.20
2023-03-19T06:06:34.862Z,8.60
2023-03-19T06:09:05.298Z,8.20
2023-03-19T06:11:33.782Z,8.77
2023-03-19T06:14:02.207Z,8.33
2023-03-19T06:16:30.745Z,26.67
2023-03-19T06:18:59.261Z,28.20
2023-03-19T06:21:29.777Z,15.33
2023-03-19T06:23:58.498Z,9.23
2023-03-19T06:26:28.594Z,9.70
2023-03-19T06:28:57.478Z,9.10
2023-03-19T06:31:26.044Z,8.90
2023-03-19T06:33:54.739Z,10.00
2023-03-19T06:36:23.338Z,10.37
2023-03-19T06:38:51.961Z,8.77
2023-03-19T06:41:21.272Z,22.43
2023-03-19T06:43:51.246Z,19.00
2023-03-19T06:46:19.802Z,10.47
2023-03-19T06:48:48.453Z,9.47
2023-03-19T06:51:17.037Z,9.57
2023-03-19T06:53:45.514Z,9.77
2023-03-19T06:56:13.999Z,10.40
2023-03-19T06:58:42.559Z,12.37
2023-03-19T07:01:12.621Z,16.10
2023-03-19T07:03:41.104Z,11.00
2023-03-19T07:06:09.593Z,11.00
2023-03-19T07:08:38.091Z,20.33
2023-03-19T07:11:07.610Z,12.77
2023-03-19T07:13:38.037Z,11.47
2023-03-19T07:16:07.266Z,9.80
2023-03-19T07:18:37.184Z,9.77
2023-03-19T07:21:06.127Z,9.00
2023-03-19T07:23:34.544Z,8.87
2023-03-19T07:26:03.532Z,8.87
2023-03-19T07:28:32.046Z,9.60
2023-03-19T07:31:00.577Z,9.13
2023-03-19T07:33:29.058Z,9.37
2023-03-19T07:35:58.938Z,9.33
2023-03-19T07:38:27.622Z,9.63
2023-03-19T07:41:02.306Z,19.17
2023-03-19T07:43:31.382Z,10.30
2023-03-19T07:46:00.832Z,9.53
2023-03-19T07:48:29.271Z,9.37
2023-03-19T07:50:59.263Z,9.63
2023-03-19T07:53:27.832Z,9.23
2023-03-19T07:55:56.468Z,8.93
2023-03-19T07:58:27.068Z,8.63
2023-03-19T08:00:56.051Z,16.17
2023-03-19T08:03:24.559Z,31.27
2023-03-19T08:05:53.872Z,11.67
2023-03-19T08:08:23.707Z,10.60
2023-03-19T08:10:54.970Z,9.03
2023-03-19T08:13:23.705Z,8.97
2023-03-19T08:15:53.509Z,9.57
2023-03-19T08:18:22.082Z,9.83
2023-03-19T08:20:50.879Z,8.57
2023-03-19T08:23:19.604Z,8.97
2023-03-19T08:25:51.782Z,8.40
2023-03-19T08:28:20.636Z,9.07
2023-03-19T08:30:49.253Z,8.70
2023-03-19T08:33:17.911Z,10.07
2023-03-19T08:35:46.609Z,9.97
2023-03-19T08:38:15.412Z,9.87
2023-03-19T08:40:43.904Z,10.90
2023-03-19T08:43:13.717Z,13.03
2023-03-19T08:45:42.445Z,10.03
2023-03-19T08:48:10.875Z,9.17
2023-03-19T08:50:39.419Z,9.90
2023-03-19T08:53:07.985Z,9.47
2023-03-19T08:55:36.489Z,9.47
2023-03-19T08:58:04.930Z,8.97
2023-03-19T09:00:35.120Z,9.47
2023-03-19T09:03:03.767Z,10.23
2023-03-19T09:05:32.311Z,11.97
2023-03-19T09:08:00.857Z,10.83
2023-03-19T09:10:29.472Z,10.17
2023-03-19T09:12:58.481Z,10.10
2023-03-19T09:15:27.071Z,10.67
2023-03-19T09:17:57.110Z,10.43
2023-03-19T09:20:25.827Z,14.60
2023-03-19T09:22:54.225Z,12.03
2023-03-19T09:25:22.726Z,10.20
2023-03-19T09:27:51.188Z,10.30
2023-03-19T09:30:19.860Z,10.27
2023-03-19T09:32:48.437Z,9.97
2023-03-19T09:35:18.430Z,9.97
2023-03-19T09:37:46.996Z,9.30
2023-03-19T09:40:23.150Z,10.17
2023-03-19T09:43:00.875Z,14.10
2023-03-19T09:45:30.603Z,17.50
2023-03-19T09:48:04.290Z,11.40
2023-03-19T09:50:36.505Z,10.40
2023-03-19T09:53:09.318Z,10.53
2023-03-19T09:55:42.731Z,10.30
2023-03-19T09:58:15.740Z,11.00
2023-03-19T10:00:45.759Z,10.47
2023-03-19T10:03:26.928Z,10.03
2023-03-19T10:06:03.220Z,9.90
2023-03-19T10:08:39.794Z,10.50
2023-03-19T10:11:20.968Z,10.93
2023-03-19T10:13:58.441Z,10.00
2023-03-19T10:16:29.224Z,11.30
2023-03-19T10:19:00.483Z,10.40
2023-03-19T10:21:34.324Z,9.37
2023-03-19T10:24:05.058Z,9.10
2023-03-19T10:26:35.835Z,10.00
2023-03-19T10:29:08.233Z,9.70
2023-03-19T10:31:47.238Z,9.43
2023-03-19T10:34:31.438Z,9.27
2023-03-19T10:37:03.899Z,10.50
2023-03-19T10:39:34.255Z,9.87
2023-03-19T10:42:13.830Z,9.40
2023-03-19T10:44:48.475Z,8.73
2023-03-19T10:47:19.249Z,9.20
2023-03-19T10:49:47.991Z,8.53
2023-03-19T10:52:30.648Z,8.50
2023-03-19T10:55:04.608Z,8.67
2023-03-19T10:57:33.172Z,8.40
2023-03-19T11:00:04.841Z,9.80
2023-03-19T11:02:33.599Z,8.87
2023-03-19T11:05:10.297Z,8.30
2023-03-19T11:07:40.612Z,8.53
2023-03-19T11:10:14.715Z,9.03
2023-03-19T11:12:43.564Z,9.97
2023-03-19T11:15:21.594Z,9.80
2023-03-19T11:17:51.918Z,9.43
2023-03-19T11:20:26.400Z,9.70
2023-03-19T11:22:57.515Z,9.83
2023-03-19T11:25:28.654Z,9.80
2023-03-19T11:28:02.147Z,9.83
2023-03-19T11:30:38.983Z,10.43
2023-03-19T11:33:17.697Z,9.70
2023-03-19T11:35:50.670Z,9.17
2023-03-19T11:38:26.403Z,9.23
2023-03-19T11:41:02.175Z,8.87
2023-03-19T11:43:48.246Z,9.97
2023-03-19T11:46:25.049Z,9.83
2023-03-19T11:49:09.411Z,9.60
2023-03-19T11:51:41.806Z,9.03
2023-03-19T11:54:22.250Z,9.40
2023-03-19T11:56:56.782Z,9.90
2023-03-19T11:59:44.625Z,9.73
2023-03-19T12:02:30.538Z,9.03
2023-03-19T12:05:13.904Z,8.90
2023-03-19T12:07:47.537Z,9.47
2023-03-19T12:10:30.191Z,9.20
2023-03-19T12:13:08.444Z,9.20
2023-03-19T12:15:41.229Z,9.27
2023-03-19T12:18:18.628Z,9.23
2023-03-19T12:20:55.479Z,9.40
2023-03-19T12:23:35.920Z,9.40
2023-03-19T12:26:08.786Z,10.20
2023-03-19T12:28:40.660Z,10.23
2023-03-19T12:31:36.912Z,10.53
2023-03-19T12:34:20.846Z,9.93
2023-03-19T12:36:54.057Z,10.23
2023-03-19T12:39:25.562Z,10.30
2023-03-19T12:41:58.358Z,9.90
2023-03-19T12:44:31.219Z,9.97
2023-03-19T12:47:03.817Z,9.27
2023-03-19T12:49:37.287Z,10.00
2023-03-19T12:52:13.681Z,9.90
2023-03-19T12:54:44.770Z,9.37
2023-03-19T12:57:19.575Z,9.17
2023-03-19T12:59:51.769Z,9.23
2023-03-19T13:02:26.620Z,9.50
2023-03-19T13:04:58.062Z,9.20
2023-03-19T13:07:32.223Z,9.43
2023-03-19T13:10:05.148Z,9.20
2023-03-19T13:12:38.231Z,9.53
2023-03-19T13:15:10.764Z,9.33
2023-03-19T13:17:43.500Z,13.77
2023-03-19T13:20:20.160Z,11.50
2023-03-19T13:22:54.483Z,10.03
2023-03-19T13:25:25.518Z,9.27
2023-03-19T13:27:56.378Z,9.10
2023-03-19T13:30:26.276Z,9.53
2023-03-19T13:33:02.904Z,10.33
2023-03-19T13:35:40.663Z,8.97
2023-03-19T13:38:19.620Z,9.40
2023-03-19T13:40:50.650Z,9.67
2023-03-19T13:43:43.753Z,10.47
2023-03-19T13:46:37.521Z,10.67
2023-03-19T13:49:27.335Z,9.77
2023-03-19T13:51:58.384Z,9.57
2023-03-19T13:54:40.103Z,9.77
2023-03-19T13:57:34.069Z,10.13
2023-03-19T14:00:51.163Z,8.97
2023-03-19T14:03:21.884Z,8.77
2023-03-19T14:05:52.343Z,9.17
2023-03-19T14:08:22.488Z,9.10
2023-03-19T14:10:52.964Z,10.17
2023-03-19T14:13:31.962Z,11.57
2023-03-19T14:16:08.974Z,11.20
2023-03-19T14:18:42.377Z,9.50
2023-03-19T14:21:13.204Z,9.50
2023-03-19T14:23:46.324Z,9.03
2023-03-19T14:26:20.725Z,9.77
2023-03-19T14:28:58.987Z,8.60
2023-03-19T14:31:35.262Z,8.03
2023-03-19T14:34:08.533Z,8.20
2023-03-19T14:36:38.297Z,8.50
2023-03-19T14:39:10.643Z,9.13
2023-03-19T14:41:43.659Z,9.43
2023-03-19T14:44:51.150Z,9.83
2023-03-19T14:47:31.546Z,9.17
2023-03-19T14:50:35.652Z,10.20
2023-03-19T14:53:06.887Z,8.83
2023-03-19T14:55:38.028Z,10.30
2023-03-19T14:58:06.910Z,13.03
2023-03-19T15:00:44.637Z,12.60
2023-03-19T15:03:23.327Z,12.27
2023-03-19T15:05:57.952Z,19.00
2023-03-19T15:08:26.752Z,10.93
2023-03-19T15:11:09.264Z,9.07
2023-03-19T15:13:45.527Z,9.67
2023-03-19T15:16:28.718Z,9.77
2023-03-19T15:18:58.676Z,8.87
2023-03-19T15:21:27.846Z,9.13
2023-03-19T15:23:56.365Z,8.93
2023-03-19T15:26:32.441Z,9.60
2023-03-19T15:29:01.108Z,10.30
2023-03-19T15:31:52.351Z,10.07
2023-03-19T15:34:32.029Z,9.70
2023-03-19T15:37:02.580Z,9.60
2023-03-19T15:39:33.538Z,9.73
2023-03-19T15:42:02.367Z,9.53
2023-03-19T15:44:34.761Z,9.63
2023-03-19T15:47:04.982Z,8.77
2023-03-19T15:49:38.244Z,8.93
2023-03-19T15:52:09.391Z,9.50
2023-03-19T15:54:37.884Z,8.80
2023-03-19T15:57:07.686Z,9.60
2023-03-19T15:59:36.303Z,8.63
2023-03-19T16:02:12.258Z,8.90
2023-03-19T16:05:10.481Z,8.23
2023-03-19T16:07:42.755Z,7.67
2023-03-19T16:10:38.323Z,8.40
2023-03-19T16:13:28.720Z,7.97
2023-03-19T16:16:02.360Z,7.30
2023-03-19T16:18:32.662Z,7.03
2023-03-19T16:21:09.275Z,9.10
2023-03-19T16:23:38.957Z,12.23
2023-03-19T16:26:17.926Z,16.07
2023-03-19T16:28:50.489Z,14.30
2023-03-19T16:31:24.827Z,14.50
2023-03-19T16:33:53.905Z,12.70
2023-03-19T16:36:25.184Z,11.80
2023-03-19T16:38:58.997Z,11.73
2023-03-19T16:41:33.783Z,14.73
2023-03-19T16:44:16.787Z,12.77
2023-03-19T16:46:45.765Z,11.80
2023-03-19T16:49:14.280Z,13.47
2023-03-19T16:51:44.369Z,12.43
2023-03-19T16:54:14.596Z,17.43
2023-03-19T16:56:43.254Z,12.83
2023-03-19T16:59:14.597Z,10.93
2023-03-19T17:01:43.113Z,12.33
2023-03-19T17:04:17.517Z,13.13
2023-03-19T17:06:47.549Z,21.33
2023-03-19T17:09:16.551Z,26.40
2023-03-19T17:11:45.441Z,20.30
2023-03-19T17:14:17.838Z,19.63
2023-03-19T17:16:50.664Z,25.43
2023-03-19T17:19:22.032Z,38.33
2023-03-19T17:21:53.507Z,28.80
2023-03-19T17:24:24.824Z,21.00
2023-03-19T17:26:53.834Z,18.67
2023-03-19T17:29:24.848Z,18.47
2023-03-19T17:31:53.833Z,13.53
2023-03-19T17:34:25.325Z,13.70
2023-03-19T17:36:57.071Z,15.47
2023-03-19T17:39:26.626Z,24.13
2023-03-19T17:41:55.065Z,21.60
2023-03-19T17:44:23.728Z,20.93
2023-03-19T17:46:54.399Z,20.87
2023-03-19T17:49:25.078Z,20.37
2023-03-19T17:51:55.043Z,15.30
2023-03-19T17:54:25.836Z,15.47
2023-03-19T17:56:54.499Z,16.80
2023-03-19T17:59:23.466Z,19.07
2023-03-19T18:01:52.317Z,17.77
2023-03-19T18:04:22.415Z,14.47
2023-03-19T18:06:54.785Z,12.57
2023-03-19T18:09:24.777Z,22.90
2023-03-19T18:11:53.318Z,31.57
2023-03-19T18:14:21.813Z,18.20
2023-03-19T18:16:50.404Z,14.07
2023-03-19T18:19:22.067Z,10.83
2023-03-19T18:21:50.503Z,11.57
2023-03-19T18:24:20.301Z,11.90
2023-03-19T18:26:48.779Z,14.57
2023-03-19T18:29:17.393Z,16.10
2023-03-19T18:31:47.110Z,24.40
2023-03-19T18:34:16.887Z,25.80
2023-03-19T18:36:45.590Z,22.80
2023-03-19T18:39:16.131Z,21.93
2023-03-19T18:41:46.068Z,23.00
2023-03-19T18:44:14.469Z,27.13
2023-03-19T18:46:43.310Z,28.10
2023-03-19T18:49:20.906Z,30.37
2023-03-19T18:52:01.641Z,30.60
2023-03-19T18:54:32.000Z,20.03
2023-03-19T18:57:02.621Z,19.07
2023-03-19T18:59:33.189Z,21.57
2023-03-19T19:02:03.433Z,24.63
2023-03-19T19:04:32.331Z,22.83
2023-03-19T19:07:01.737Z,20.43
2023-03-19T19:09:30.429Z,19.53
2023-03-19T19:12:02.053Z,17.17
2023-03-19T19:14:30.895Z,15.77
2023-03-19T19:16:59.747Z,33.33
2023-03-19T19:19:28.807Z,18.57
2023-03-19T19:21:57.260Z,16.90
2023-03-19T19:24:25.768Z,15.80
2023-03-19T19:26:54.490Z,15.87
2023-03-19T19:29:26.762Z,17.93
2023-03-19T19:31:55.588Z,40.37
2023-03-19T19:34:24.474Z,35.90
2023-03-19T19:36:55.485Z,28.87
2023-03-19T19:39:24.011Z,21.67
2023-03-19T19:41:54.019Z,19.90
2023-03-19T19:44:24.893Z,19.03
2023-03-19T19:46:54.617Z,16.73
2023-03-19T19:49:24.782Z,20.00
2023-03-19T19:51:53.202Z,21.43
2023-03-19T19:54:22.813Z,22.83
2023-03-19T19:56:52.197Z,19.80
2023-03-19T19:59:21.046Z,18.67
2023-03-19T20:01:50.928Z,16.33
2023-03-19T20:04:21.233Z,16.57
2023-03-19T20:06:51.276Z,17.37
2023-03-19T20:09:19.865Z,15.97
2023-03-19T20:11:48.499Z,20.63
2023-03-19T20:14:17.052Z,45.00
2023-03-19T20:16:45.545Z,31.43
2023-03-19T20:19:20.116Z,23.37
2023-03-19T20:21:48.654Z,22.47
2023-03-19T20:24:17.086Z,21.27
2023-03-19T20:26:45.669Z,15.67
2023-03-19T20:29:16.040Z,14.53
2023-03-19T20:31:46.120Z,13.83
2023-03-19T20:34:32.498Z,11.30
2023-03-19T20:37:05.278Z,11.57
2023-03-19T20:39:33.806Z,11.90
2023-03-19T20:42:02.369Z,13.50
2023-03-19T20:44:30.958Z,14.10
2023-03-19T20:46:59.433Z,15.20
2023-03-19T20:49:30.911Z,14.20
2023-03-19T20:51:59.497Z,13.67
2023-03-19T20:54:27.965Z,12.20
2023-03-19T20:56:56.465Z,12.90
2023-03-19T20:59:26.869Z,12.83
2023-03-19T21:01:56.467Z,13.23
2023-03-19T21:04:24.968Z,27.00
2023-03-19T21:06:54.819Z,28.40
2023-03-19T21:09:24.340Z,15.20
2023-03-19T21:11:53.258Z,13.70
2023-03-19T21:14:23.440Z,13.60
2023-03-19T21:16:51.963Z,12.43
2023-03-19T21:19:20.406Z,12.37
2023-03-19T21:21:49.324Z,11.83
2023-03-19T21:24:20.884Z,10.07
2023-03-19T21:26:50.060Z,11.90
2023-03-19T21:29:22.880Z,12.13
2023-03-19T21:31:54.171Z,10.97
2023-03-19T21:34:22.617Z,9.63
2023-03-19T21:36:51.064Z,9.33
2023-03-19T21:39:21.968Z,10.23
2023-03-19T21:41:50.505Z,9.30
2023-03-19T21:44:21.719Z,9.50
2023-03-19T21:46:50.648Z,9.47
2023-03-19T21:49:19.116Z,9.87
2023-03-19T21:51:47.841Z,9.53
2023-03-19T21:54:16.294Z,9.67
2023-03-19T21:56:47.067Z,9.47
2023-03-19T21:59:16.586Z,10.07
2023-03-19T22:01:45.018Z,12.33
2023-03-19T22:04:13.566Z,12.20
2023-03-19T22:06:43.144Z,11.50
2023-03-19T22:09:11.747Z,11.20
2023-03-19T22:11:41.871Z,10.80
2023-03-19T22:14:17.796Z,10.33
2023-03-19T22:16:46.488Z,10.27
2023-03-19T22:19:15.619Z,12.30
2023-03-19T22:21:44.057Z,11.37
2023-03-19T22:24:12.738Z,10.93
2023-03-19T22:26:42.873Z,11.20
2023-03-19T22:29:18.703Z,11.53
2023-03-19T22:31:49.495Z,10.37
2023-03-19T22:34:21.581Z,10.17
2023-03-19T22:36:50.467Z,10.03
2023-03-19T22:39:18.897Z,10.33
2023-03-19T22:41:48.977Z,10.93
2023-03-19T22:44:24.691Z,9.53
2023-03-19T22:46:53.510Z,9.03
2023-03-19T22:49:21.997Z,10.80
2023-03-19T22:51:51.743Z,10.23
2023-03-19T22:54:20.152Z,10.20
2023-03-19T22:56:48.728Z,11.30
2023-03-19T22:59:18.697Z,10.70
2023-03-19T23:01:48.106Z,9.80
2023-03-19T23:04:20.239Z,10.60
2023-03-19T23:06:49.077Z,9.13
2023-03-19T23:09:20.010Z,9.60
2023-03-19T23:11:49.433Z,8.37
2023-03-19T23:14:29.024Z,9.00
2023-03-19T23:19:29.950Z,11.37
2023-03-19T23:21:58.945Z,15.47
2023-03-19T23:24:27.891Z,13.00
2023-03-19T23:26:57.807Z,13.43
2023-03-19T23:29:30.512Z,12.40
2023-03-19T23:31:58.965Z,11.53
2023-03-19T23:34:28.637Z,11.47
2023-03-19T23:36:57.947Z,10.03
2023-03-19T23:39:26.807Z,9.47
2023-03-19T23:41:58.311Z,9.80
2023-03-19T23:44:29.187Z,9.50
2023-03-19T23:47:01.065Z,10.20
2023-03-19T23:49:32.226Z,9.53
2023-03-19T23:52:01.862Z,9.33
2023-03-19T23:54:32.127Z,9.67
2023-03-19T23:57:02.335Z,8.93
2023-03-19T23:59:34.665Z,9.00
